Time,TemperatureF,DewpointF,PressureIn,WindDirection,WindDirectionDegrees,WindSpeedMPH,WindSpeedGustMPH,Humidity,HourlyPrecipIn,Conditions,Clouds,dailyrainin,SolarRadiationWatts/m^2,SoftwareType,DateUTC
2013-09-18 00:04:00,66.0,57.0,-100.00,SE,133,10.0,21.0,73,0.00,,,0.00,0.000000,,2013-09-18 04:04:00,
2013-09-18 00:44:00,65.0,56.0,-100.00,SE,144,8.0,19.0,74,0.00,,,0.00,0.000000,,2013-09-18 04:44:00,
2013-09-18 00:54:00,65.0,56.0,-100.00,SE,144,8.0,19.0,74,0.00,,,0.00,0.000000,,2013-09-18 04:54:00,
2013-09-18 01:04:00,65.0,56.0,-100.00,SE,144,8.0,19.0,74,0.00,,,0.00,0.000000,,2013-09-18 05:04:00,
2013-09-18 01:43:00,65.0,57.0,-100.00,SE,127,9.0,15.0,76,0.00,,,0.00,0.000000,,2013-09-18 05:43:00,
2013-09-18 01:53:00,65.0,57.0,-100.00,SE,127,9.0,15.0,76,0.00,,,0.00,0.000000,,2013-09-18 05:53:00,
2013-09-18 02:02:00,65.0,57.0,-100.00,SE,127,9.0,15.0,76,0.00,,,0.00,0.000000,,2013-09-18 06:02:00,
2013-09-18 02:42:00,65.0,57.0,-100.00,SE,129,9.0,17.0,75,0.00,,,0.00,0.000000,,2013-09-18 06:42:00,
2013-09-18 02:52:00,65.0,57.0,-100.00,SE,129,9.0,17.0,75,0.00,,,0.00,0.000000,,2013-09-18 06:52:00,
2013-09-18 03:02:00,65.0,57.0,-100.00,SE,129,9.0,17.0,75,0.00,,,0.00,0.000000,,2013-09-18 07:02:00,
2013-09-18 03:42:00,65.0,56.0,-100.00,SE,126,8.0,16.0,73,0.00,,,0.00,0.000000,,2013-09-18 07:42:00,
2013-09-18 03:52:00,65.0,56.0,-100.00,SE,126,8.0,16.0,73,0.00,,,0.00,0.000000,,2013-09-18 07:52:00,
2013-09-18 04:02:00,65.0,56.0,-100.00,SE,126,8.0,16.0,73,0.00,,,0.00,0.000000,,2013-09-18 08:02:00,
2013-09-18 04:42:00,65.0,56.0,-100.00,SE,143,8.0,16.0,72,0.00,,,0.00,0.000000,,2013-09-18 08:42:00,
2013-09-18 04:52:00,65.0,56.0,-100.00,SE,143,8.0,16.0,72,0.00,,,0.00,0.000000,,2013-09-18 08:52:00,
2013-09-18 05:02:00,65.0,56.0,-100.00,SE,143,8.0,16.0,72,0.00,,,0.00,0.000000,,2013-09-18 09:02:00,
2013-09-18 05:43:00,64.0,55.0,-100.00,SSE,147,8.0,15.0,73,0.00,,,0.00,0.000000,,2013-09-18 09:43:00,
2013-09-18 05:53:00,64.0,55.0,-100.00,SSE,147,8.0,15.0,73,0.00,,,0.00,0.000000,,2013-09-18 09:53:00,
2013-09-18 06:03:00,64.0,55.0,-100.00,SSE,147,8.0,15.0,73,0.00,,,0.00,0.000000,,2013-09-18 10:03:00,
2013-09-18 06:43:00,65.0,55.0,-100.00,SE,136,10.0,18.0,70,0.00,,,0.00,0.000000,,2013-09-18 10:43:00,
2013-09-18 06:53:00,65.0,55.0,-100.00,SE,136,10.0,18.0,70,0.00,,,0.00,0.000000,,2013-09-18 10:53:00,
2013-09-18 07:02:00,65.0,55.0,-100.00,SE,136,10.0,18.0,70,0.00,,,0.00,0.000000,,2013-09-18 11:02:00,
2013-09-18 07:42:00,64.0,54.0,-100.00,SE,136,9.0,18.0,71,0.00,,,0.00,0.000000,,2013-09-18 11:42:00,
2013-09-18 07:52:00,64.0,54.0,-100.00,SE,136,9.0,18.0,71,0.00,,,0.00,0.000000,,2013-09-18 11:52:00,
2013-09-18 08:01:00,64.0,54.0,-100.00,SE,136,9.0,18.0,71,0.00,,,0.00,0.000000,,2013-09-18 12:01:00,
2013-09-18 08:43:00,64.0,55.0,-100.00,SSE,151,6.0,13.0,73,0.00,,,0.00,23.000000,,2013-09-18 12:43:00,
2013-09-18 08:52:00,64.0,55.0,-100.00,SSE,151,6.0,13.0,73,0.00,,,0.00,23.000000,,2013-09-18 12:52:00,
2013-09-18 09:02:00,64.0,55.0,-100.00,SSE,151,6.0,13.0,73,0.00,,,0.00,23.000000,,2013-09-18 13:02:00,